SEBI

Registration No.

INH000000305

Ip Address Lookup

So far visitors:

customizable counter

TRIAL

TRIAL

SEND SMS FOR TRIAL

EQUITY - COMMODITY OR BOTH

TO

 09920033678

AND GET TRIAL

 

SEBI Registration No.: INH000000305 *****

* Commodity: 9500/month * Equity: 6000/month


* Gold Package: 7000 * Gold-Silver Package: 8100
*Crude-NG-Copper-Nickel Package: 6000


To See Past Performance, Click Here

For TRIAL / Registration,

click here

Past Performance >> Equity Tips
 
Search
 
Entry Start Date Entry End Date
Exit Start Date Exit End Date
Scrip Name Contract
Package
 

Packages: Precious Metals - Energy and Base Metals - Profit is calculated on basis of 1 lot per call

Package: Equity calls: Profit is calculated as follows:

1. If the scrip is in F & O then 1 lot is counted otherwise

2. Trade of Rs.1,50,000/- per call is counted.

 
Page: ( 1 2 3 4 5 6 7 8 9 10 11 12 13 14 15 16 17 18 19 20 21 22 23 24 25 26 27 28 29 30 31 32 33 34 35 36 37 38 39 40 41 42 43 44 45 46 47 48 49 50 51 52 53 54 55 56 57 58 59 60 61 62 63 64 65 66 67 68 69 70 71 72 73 74 75 76 77 78 79 80 81 82 83 84 85 86 87 88 89 90 91 92 93 94 95 96 97 98 99 100 101 102 103 104 105 106 107 108 109 110 ) [Current Page: 49]
Displaying 3601 to 3675   Calls
Entry Date Type Scrip Entry Price (Rs) T1
(Rs)
T2
(Rs)
T3
(Rs)
Stop Loss
(Rs)
Exit Date Exit Rate
(Rs)
Profit
(Rs)
 
10-07-14 Buy NHPC 24.95 26 27 28 24 10-07-14 24 -11400.00 More
10-07-14 Buy NTPC 152.50 157 167 --- 149 10-07-14 149 -7000.00 More
10-07-14 Buy Adani Power 58 60 62 64 57 10-07-14 57 -8000.00 More
09-07-14 Sell Below 1670 1650 1640 1630 1685 09-07-14 1658 3000.00 More
09-07-14 Sell BANK NIFTY 15000 14900 14800 1470 15100 09-07-14 14915 2125.00 More
09-07-14 Sell Below Nifty 7630 7610 7590 7550 7655 09-07-14 7570 3000.00 More
09-07-14 Buy Above Nifty 7655 7675 7700 7730 7630 09-07-14 7630 -1250.00 More
09-07-14 Sell Below ADANI ENT 443 433 423 412 455 09-07-14 426 17000.00 More
08-07-14 Sell Below NMDC 182 178 174 --- 184 08-07-14 174 16000.00 More
08-07-14 Sell Below BANK NIFTY 15450 15400 15350 15250 15520 08-07-14 15250 5000.00 More
08-07-14 Sell Below Nifty 7790 7770 7750 7700 7810 08-07-14 7700 4500.00 More
08-07-14 Sell Below BOB 868 860 845 --- 880 08-07-14 847 10500.00 More
07-07-14 Sell Below BANK NIFTY 15550 15500 15450 15350 15620 07-07-14 15470 2000.00 More
07-07-14 Buy Above Nifty 7800 7825 7840 7865 7780 07-07-14 7780 -1000.00 More
07-07-14 Sell Below Nifty 7780 7760 7740 7720 7800 07-07-14 7800 -1000.00 More
07-07-14 Buy Above RECL 381 386 390 395 375 08-07-14 375 -6000.00 More
04-07-14 Sell Below LICHSGFIN 324.50 321 316 --- 328 04-07-14 328 -3500.00 More
04-07-14 Sell Below Nifty 7740 7720 7700 7680 7765 04-07-14 7680 3000.00 More
04-07-14 Sell BANK NIFTY 15540 15480 15430 15350 15630 04-07-14 15400 3500.00 More
03-07-14 Buy Tata Chemicals 348 352 356 360 345 03-07-14 345 -3000.00 More
03-07-14 Buy 159 162 164 167 157 04-07-14 157 -1240.00 More
03-07-14 Sell TATA GLOBAL 174.40 172 170 168 177 03-07-14 170 8800.00 More
03-07-14 Buy Above Nifty 7770 7795 7810 --- 7750 03-07-14 7750 -1000.00 More
03-07-14 Sell Below Nifty 7750 7730 7710 7690 7770 03-07-14 7730 1000.00 More
03-07-14 Buy Above Adani Power 66.50 68 70 72 64 03-07-14 67.65 9200.00 More
02-07-14 Sell Below Petronet LNG 174 170 165 --- 177 03-07-14 172 4000.00 More
02-07-14 Buy Nifty 7720 7740 7760 --- 7690 02-07-14 7755 1750.00 More
01-07-14 Buy Above NTPC 158 162 165 --- 155 02-07-14 161 6000.00 More
01-07-14 Buy 1718 1740 1760 1780 1705 02-07-14 1774 14000.00 More
01-07-14 Buy HDIL 102.50 105 108 115 98.25 01-07-14 105.75 26000.00 More
01-07-14 Buy Above Nifty 7655 7675 7700 7720 7630 01-07-14 7675 1000.00 More
01-07-14 Buy Above BANK NIFTY 15400 15450 15500 15600 15320 01-07-14 15470 1750.00 More
30-06-14 Buy Nifty 7605 7625 7650 --- 7580 30-06-14 7645 2000.00 More
30-06-14 Buy BANK NIFTY 15350 15400 15450 15500 15290 30-06-14 15450 2500.00 More
30-06-14 Buy Above HEXAWARE 160 165 170 --- 157 01-07-14 157 -6000.00 More
27-06-14 Sell Below Nifty 7535 7515 7500 7480 7555 27-06-14 7515 1000.00 More
27-06-14 Sell Below BANK NIFTY 15170 15120 15070 15000 15270 27-06-14 15080 2250.00 More
27-06-14 Sell Below ICICI BANK 1410 1400 1390 1380 1421 27-06-14 1391 4750.00 More
25-06-14 Buy Above NTPC 157 160 163 --- 153.50 26-06-14 153.50 -7000.00 More
25-06-14 Buy BANK NIFTY 15300 15380 15450 15500 15220 25-06-14 15270 -750.00 More
25-06-14 Sell Below Nifty 7575 7550 7525 7500 7600 25-06-14 7575 0.00 More
25-06-14 Buy CESC 640 650 660 --- 630 25-06-14 630 -5000.00 More
25-06-14 Buy Above BHEL 253 256 260 265 249 26-06-14 253 0.00 More
24-06-14 Buy Above VOLTAS 216.50 219 223 --- 214 24-06-14 222.50 12000.00 More
24-06-14 Buy Above BANK NIFTY 15260 15320 15370 15450 15180 24-06-14 15380 3000.00 More
24-06-14 Buy Above Nifty 7560 7580 7600 7620 7535 24-06-14 7615 2750.00 More
24-06-14 Buy Above Petronet LNG 177 180 182 185 173 24-06-14 181 8000.00 More
24-06-14 Buy Above 345 348 350 355 342 24-06-14 342 -3000.00 More
23-06-14 Sell Below CESC 592 585 580 570 601 23-06-14 601 -4500.00 More
23-06-14 Sell Below BANK NIFTY 15050 15000 14940 14860 15130 23-06-14 14970 2000.00 More
23-06-14 Buy Above BANK NIFTY 15130 15200 15260 15320 15050 23-06-14 15200 1750.00 More
23-06-14 Buy Above Nifty 7545 7565 7580 7600 7520 23-06-14 7520 -1250.00 More
23-06-14 Sell Below Nifty 7520 7500 7480 7460 7545 23-06-14 7470 2500.00 More
23-06-14 Buy Above ZEEL 288 294 298 305 281 26-06-14 293.50 5500.00 More
20-06-14 Sell Below Nifty 7540 7520 7500 7480 7570 20-06-14 7570 -1500.00 More
20-06-14 Sell BANK NIFTY 15040 14960 14900 14800 15120 20-06-14 15120 -2000.00 More
20-06-14 Sell PNB 963 955 950 945 970 20-06-14 970 -3500.00 More
19-06-14 Sell BANK NIFTY 15240 15190 15150 14990 15300 19-06-14 14990 6250.00 More
19-06-14 Buy Above BANK NIFTY 15350 15410 15460 15500 15290 19-06-14 15290 -1500.00 More
19-06-14 Sell Below Nifty 7590 7570 7550 7510 7615 19-06-14 7525 3250.00 More
18-06-14 Buy ICICI BANK 1457 1465 1475 1485 1445 18-06-14 1445 -3000.00 More
18-06-14 Buy Above BANK NIFTY 15480 15550 15600 15670 15400 18-06-14 15400 -2000.00 More
18-06-14 Buy Above Coal India 402 407 411 --- 397 18-06-14 397 -5000.00 More
18-06-14 Buy Above Nifty 7665 7685 7700 7725 7640 18-06-14 7640 -1250.00 More
18-06-14 Sell Below Nifty 7620 7600 7580 7525 7640 18-06-14 7525 4750.00 More
18-06-14 Buy Above 565 575 580 590 555 18-06-14 555 -5000.00 More
17-06-14 Sell AXIS BANK 1796 1780 1760 1740 1810 17-06-14 1810 -3500.00 More
17-06-14 Buy Above BANK NIFTY 15100 15200 15300 15400 15000 17-06-14 15000 -2500.00 More
17-06-14 Buy Above Nifty 7555 7575 7590 7660 7530 17-06-14 7660 5250.00 More
17-06-14 Buy Above LICHSGFIN 313 317 323 --- 309 17-06-14 323 10000.00 More
17-06-14 Buy BHARAT FOIRG 587 593 597 605 580 17-06-14 594 7000.00 More
16-06-14 Sell Below HPCL 394.50 387 384 --- 404 16-06-14 404 -9500.00 More
16-06-14 Sell Below BANK NIFTY 14950 14900 14830 14750 15060 16-06-14 15060 -2750.00 More
16-06-14 Sell Below Century Textiles 532 525 520 515 538 16-06-14 522 10000.00 More
16-06-14 Sell Below Nifty 7540 7520 7500 7480 7565 16-06-14 7515 1250.00 More
Page wise profit 125985.00 Rs
Profit 25633977.00 Rs
TRIAL

TRIAL

SEND SMS FOR TRIAL

EQUITY - COMMODITY OR BOTH

TO

 09920033678

AND GET TRIAL